createdAt,value
2018-01-11T00:02:26.840Z,100682.41
2018-01-11T00:05:10.292Z,100687.00
2018-01-11T00:07:47.385Z,100684.69
2018-01-11T00:10:19.371Z,100687.30
2018-01-11T00:12:51.870Z,100685.33
2018-01-11T00:15:23.562Z,100682.43
2018-01-11T00:17:55.040Z,100685.95
2018-01-11T00:20:29.813Z,100692.47
2018-01-11T00:23:01.215Z,100682.30
2018-01-11T00:25:32.812Z,100687.67
2018-01-11T00:28:03.414Z,100685.81
2018-01-11T00:30:35.117Z,100693.31
2018-01-11T00:33:11.526Z,100689.73
2018-01-11T00:35:50.372Z,100691.73
2018-01-11T00:38:21.253Z,100682.11
2018-01-11T00:40:51.862Z,100692.47
2018-01-11T00:43:24.644Z,100682.88
2018-01-11T00:45:55.970Z,100688.46
2018-01-11T00:48:26.779Z,100689.05
2018-01-11T00:51:02.566Z,100686.19
2018-01-11T00:53:34.244Z,100681.40
2018-01-11T00:56:04.931Z,100683.88
2018-01-11T00:58:36.090Z,100680.80
2018-01-11T01:01:06.388Z,100685.38
2018-01-11T01:03:39.218Z,100691.73
2018-01-11T01:06:12.584Z,100686.70
2018-01-11T01:08:44.198Z,100686.70
2018-01-11T01:11:14.488Z,100687.61
2018-01-11T01:13:45.751Z,100682.95
2018-01-11T01:16:16.780Z,100690.03
2018-01-11T01:18:48.518Z,100692.09
2018-01-11T01:21:18.954Z,100693.33
2018-01-11T01:23:49.916Z,100701.66
2018-01-11T01:26:20.343Z,100699.06
2018-01-11T01:31:37.149Z,100709.77
2018-01-11T01:40:01.759Z,100712.02
2018-01-11T01:42:32.422Z,100719.50
2018-01-11T01:45:05.572Z,100731.19
2018-01-11T01:47:36.312Z,100737.96
2018-01-11T01:50:07.585Z,100739.97
2018-01-11T01:52:38.468Z,100742.81
2018-01-11T01:55:09.534Z,100744.20
2018-01-11T01:57:39.832Z,100747.02
2018-01-11T02:00:17.122Z,100742.34
2018-01-11T02:02:47.597Z,100750.30
2018-01-11T02:05:17.980Z,100747.89
2018-01-11T02:07:48.448Z,100750.67
2018-01-11T02:10:19.075Z,100747.93
2018-01-11T02:12:50.202Z,100759.25
2018-01-11T02:15:21.679Z,100761.98
2018-01-11T02:21:38.357Z,100764.27
2018-01-11T02:24:09.992Z,100759.06
2018-01-11T02:26:41.288Z,100760.73
2018-01-11T02:29:19.119Z,100768.69
2018-01-11T02:34:55.882Z,100762.59
2018-01-11T02:37:27.185Z,100759.48
2018-01-11T02:39:58.341Z,100747.88
2018-01-11T02:42:29.001Z,100758.33
2018-01-11T02:44:59.798Z,100754.36
2018-01-11T02:47:30.813Z,100755.66
2018-01-11T02:50:01.900Z,100754.23
2018-01-11T02:52:33.104Z,100754.63
2018-01-11T02:55:03.850Z,100759.06
2018-01-11T02:57:34.712Z,100758.47
2018-01-11T03:00:11.121Z,100756.76
2018-01-11T03:02:59.327Z,100761.80
2018-01-11T03:05:30.179Z,100761.17
2018-01-11T03:08:00.885Z,100764.95
2018-01-11T03:10:31.883Z,100748.33
2018-01-11T03:13:02.778Z,100765.86
2018-01-11T03:15:33.911Z,100770.11
2018-01-11T03:18:04.951Z,100766.89
2018-01-11T03:20:36.326Z,100775.27
2018-01-11T03:23:07.316Z,100778.27
2018-01-11T03:25:37.833Z,100776.61
2018-01-11T03:28:08.950Z,100778.09
2018-01-11T03:30:39.980Z,100779.16
2018-01-11T03:33:12.223Z,100741.38
2018-01-11T03:35:43.068Z,100779.41
2018-01-11T03:38:13.897Z,100783.56
2018-01-11T03:40:44.565Z,100785.21
2018-01-11T03:43:16.164Z,100784.83
2018-01-11T03:45:46.772Z,100787.50
2018-01-11T03:48:18.287Z,100784.77
2018-01-11T03:50:48.890Z,100793.44
2018-01-11T03:53:19.873Z,100782.91
2018-01-11T03:55:50.517Z,100788.11
2018-01-11T03:58:35.197Z,100789.59
2018-01-11T04:01:07.770Z,100788.33
2018-01-11T04:03:41.842Z,100792.58
2018-01-11T04:06:15.874Z,100798.30
2018-01-11T04:08:48.593Z,100792.88
2018-01-11T04:11:21.054Z,100799.98
2018-01-11T04:13:54.036Z,100799.09
2018-01-11T04:16:27.332Z,100799.88
2018-01-11T04:19:04.360Z,100805.16
2018-01-11T04:21:38.146Z,100805.98
2018-01-11T04:24:13.311Z,100806.01
2018-01-11T04:26:49.301Z,100797.61
2018-01-11T04:29:21.959Z,100797.39
2018-01-11T04:31:55.019Z,100803.73
2018-01-11T04:34:27.028Z,100805.73
2018-01-11T04:36:58.181Z,100812.05
2018-01-11T04:39:33.119Z,100812.86
2018-01-11T04:42:09.836Z,100814.59
2018-01-11T04:44:45.733Z,100814.36
2018-01-11T04:47:19.989Z,100813.91
2018-01-11T04:49:52.180Z,100822.92
2018-01-11T04:52:25.596Z,100823.47
2018-01-11T04:54:57.943Z,100831.27
2018-01-11T04:57:30.092Z,100821.11
2018-01-11T05:00:01.220Z,100826.22
2018-01-11T05:02:34.193Z,100824.98
2018-01-11T05:05:05.095Z,100831.33
2018-01-11T05:07:35.688Z,100832.72
2018-01-11T05:10:06.694Z,100831.87
2018-01-11T05:12:37.541Z,100838.84
2018-01-11T05:15:08.527Z,100836.06
2018-01-11T05:17:41.459Z,100844.28
2018-01-11T05:20:12.215Z,100849.39
2018-01-11T05:22:44.317Z,100850.48
2018-01-11T05:25:15.811Z,100854.47
2018-01-11T05:27:46.454Z,100858.78
2018-01-11T05:30:17.957Z,100857.44
2018-01-11T05:32:48.971Z,100858.56
2018-01-11T05:35:22.782Z,100866.69
2018-01-11T05:37:54.159Z,100860.67
2018-01-11T05:40:25.295Z,100871.33
2018-01-11T05:42:55.886Z,100875.22
2018-01-11T05:45:26.711Z,100878.01
2018-01-11T05:47:58.181Z,100876.38
2018-01-11T05:50:29.000Z,100878.67
2018-01-11T05:52:59.633Z,100883.98
2018-01-11T05:55:31.992Z,100881.98
2018-01-11T05:58:02.796Z,100892.12
2018-01-11T06:00:33.921Z,100897.45
2018-01-11T06:03:04.753Z,100903.42
2018-01-11T06:05:36.829Z,100898.75
2018-01-11T06:08:08.523Z,100901.02
2018-01-11T06:10:41.199Z,100907.83
2018-01-11T06:13:13.467Z,100913.97
2018-01-11T06:15:44.293Z,100908.66
2018-01-11T06:18:15.106Z,100922.66
2018-01-11T06:20:47.248Z,100928.25
2018-01-11T06:23:20.210Z,100932.46
2018-01-11T06:25:51.488Z,100940.23
2018-01-11T06:28:23.222Z,100943.05
2018-01-11T06:30:55.407Z,100945.14
2018-01-11T06:33:26.065Z,100951.94
2018-01-11T06:35:58.963Z,100943.20
2018-01-11T06:38:30.228Z,100958.23
2018-01-11T06:41:02.611Z,100958.87
2018-01-11T06:43:34.554Z,100961.86
2018-01-11T06:46:21.642Z,100972.33
2018-01-11T06:48:54.385Z,100970.58
2018-01-11T06:51:31.137Z,100970.81
2018-01-11T06:54:07.598Z,100973.81
2018-01-11T06:56:49.363Z,100979.71
2018-01-11T06:59:21.702Z,100986.24
2018-01-11T07:01:53.377Z,100964.81
2018-01-11T07:04:25.571Z,100987.27
2018-01-11T07:06:59.316Z,100991.78
2018-01-11T07:09:30.921Z,100986.58
2018-01-11T07:12:02.005Z,100991.33
2018-01-11T07:14:36.285Z,100988.81
2018-01-11T07:17:13.980Z,100995.20
2018-01-11T07:19:47.498Z,100996.83
2018-01-11T07:22:20.441Z,101002.58
2018-01-11T07:24:52.119Z,101009.78
2018-01-11T07:27:25.928Z,101008.82
2018-01-11T07:29:57.054Z,101010.21
2018-01-11T07:32:32.590Z,101012.60
2018-01-11T07:35:04.611Z,101010.23
2018-01-11T07:37:35.650Z,101017.08
2018-01-11T07:40:06.505Z,101013.99
2018-01-11T07:42:53.675Z,101007.42
2018-01-11T07:45:24.510Z,101025.67
2018-01-11T07:47:58.629Z,101031.18
2018-01-11T07:50:32.727Z,101034.78
2018-01-11T07:53:08.772Z,101036.20
2018-01-11T07:55:40.950Z,101036.09
2018-01-11T07:58:11.569Z,101025.62
2018-01-11T08:00:43.418Z,101040.33
2018-01-11T08:03:15.035Z,101032.09
2018-01-11T08:05:48.674Z,101053.13
2018-01-11T08:08:23.042Z,101058.93
2018-01-11T08:10:59.402Z,101063.13
2018-01-11T08:13:31.966Z,101054.89
2018-01-11T08:16:04.457Z,101069.17
2018-01-11T08:18:39.433Z,101066.50
2018-01-11T08:21:15.635Z,101074.20
2018-01-11T08:23:52.766Z,101076.98
2018-01-11T08:26:28.864Z,101093.34
2018-01-11T08:29:00.253Z,101081.62
2018-01-11T08:31:31.627Z,101083.52
2018-01-11T08:34:09.543Z,101094.31
2018-01-11T08:36:41.959Z,101100.86
2018-01-11T08:39:12.840Z,101102.82
2018-01-11T08:41:44.998Z,101106.17
2018-01-11T08:44:17.081Z,101110.45
2018-01-11T08:46:48.093Z,101110.52
2018-01-11T08:49:20.300Z,101095.34
2018-01-11T08:51:51.714Z,101114.38
2018-01-11T08:54:24.275Z,101110.07
2018-01-11T08:56:55.457Z,101120.06
2018-01-11T08:59:28.528Z,101110.77
2018-01-11T09:02:00.285Z,101124.45
2018-01-11T09:04:31.142Z,101127.73
2018-01-11T09:07:02.737Z,101125.19
2018-01-11T09:09:37.203Z,101130.34
2018-01-11T09:12:13.428Z,101140.23
2018-01-11T09:14:45.015Z,101141.63
2018-01-11T09:17:19.206Z,101147.23
2018-01-11T09:19:56.108Z,101147.41
2018-01-11T09:22:28.454Z,101146.66
2018-01-11T09:25:13.033Z,101165.25
2018-01-11T09:27:45.932Z,101156.37
2018-01-11T09:30:18.235Z,101174.33
2018-01-11T09:32:51.740Z,101168.97
2018-01-11T09:35:23.613Z,101175.44
2018-01-11T09:37:54.456Z,101174.52
2018-01-11T09:43:22.154Z,101182.43
2018-01-11T09:45:53.364Z,101174.91
2018-01-11T09:48:24.891Z,101176.02
2018-01-11T09:50:57.786Z,101189.69
2018-01-11T09:53:29.882Z,101194.14
2018-01-11T09:56:01.485Z,101187.15
2018-01-11T09:58:36.438Z,101192.97
2018-01-11T10:01:07.820Z,101193.80
2018-01-11T10:03:39.413Z,101190.61
2018-01-11T10:06:17.777Z,101192.13
2018-01-11T10:08:55.575Z,101202.88
2018-01-11T10:11:28.632Z,101204.02
2018-01-11T10:14:00.315Z,101202.22
2018-01-11T10:16:31.261Z,101195.05
2018-01-11T10:19:02.321Z,101179.02
2018-01-11T10:21:34.314Z,101203.20
2018-01-11T10:24:07.205Z,101157.97
2018-01-11T10:26:39.973Z,101195.67
2018-01-11T10:29:11.698Z,101195.17
2018-01-11T10:31:44.071Z,101180.45
2018-01-11T10:34:15.768Z,101205.45
2018-01-11T10:36:47.466Z,101201.19
2018-01-11T10:39:19.055Z,101206.10
2018-01-11T10:41:50.875Z,101202.05
2018-01-11T10:44:23.933Z,101205.69
2018-01-11T10:46:55.274Z,101210.70
2018-01-11T10:49:26.572Z,101215.77
2018-01-11T10:51:59.989Z,101216.55
2018-01-11T10:54:32.114Z,101215.30
2018-01-11T10:57:03.228Z,101224.97
2018-01-11T10:59:34.874Z,101223.03
2018-01-11T11:02:22.233Z,101227.54
2018-01-11T11:04:53.964Z,101230.25
2018-01-11T11:07:29.247Z,101236.70
2018-01-11T11:10:02.320Z,101235.54
2018-01-11T11:12:35.035Z,101197.34
2018-01-11T11:15:09.550Z,101234.50
2018-01-11T11:17:44.064Z,101232.06
2018-01-11T11:20:16.275Z,101237.25
2018-01-11T11:22:50.150Z,101223.39
2018-01-11T11:25:22.459Z,101233.36
2018-01-11T11:27:54.074Z,101229.22
2018-01-11T11:30:25.862Z,101214.76
2018-01-11T11:32:58.625Z,101226.94
2018-01-11T11:35:30.763Z,101226.77
2018-01-11T11:38:07.336Z,101225.18
2018-01-11T11:40:38.384Z,101223.59
2018-01-11T11:43:10.013Z,101233.16
2018-01-11T11:45:41.979Z,101231.75
2018-01-11T11:48:13.227Z,101221.64
2018-01-11T11:50:44.262Z,101235.97
2018-01-11T11:53:17.451Z,101228.13
2018-01-11T11:55:50.875Z,101239.00
2018-01-11T11:58:21.652Z,101219.45
2018-01-11T12:00:55.815Z,101231.73
2018-01-11T12:03:27.355Z,101228.57
2018-01-11T12:05:59.346Z,101234.84
2018-01-11T12:08:32.347Z,101236.09
2018-01-11T12:11:14.051Z,101242.41
2018-01-11T12:13:45.669Z,101227.91
2018-01-11T12:16:17.858Z,101234.86
2018-01-11T12:18:52.861Z,101239.02
2018-01-11T12:21:24.970Z,101239.26
2018-01-11T12:23:55.784Z,101241.31
2018-01-11T12:26:28.406Z,101243.52
2018-01-11T12:29:00.204Z,101249.97
2018-01-11T12:31:32.129Z,101224.86
2018-01-11T12:34:02.863Z,101240.20
2018-01-11T12:36:39.843Z,101241.48
2018-01-11T12:39:12.862Z,101235.11
2018-01-11T12:41:44.815Z,101243.13
2018-01-11T12:44:18.095Z,101245.12
2018-01-11T12:46:51.199Z,101249.11
2018-01-11T12:49:23.364Z,101246.48
2018-01-11T12:51:55.044Z,101243.42
2018-01-11T12:54:26.282Z,101244.93
2018-01-11T12:56:57.361Z,101254.13
2018-01-11T12:59:28.523Z,101251.76
2018-01-11T13:02:00.909Z,101262.25
2018-01-11T13:04:32.315Z,101265.72
2018-01-11T13:07:03.053Z,101265.13
2018-01-11T13:09:36.602Z,101268.13
2018-01-11T13:12:07.446Z,101271.32
2018-01-11T13:14:38.332Z,101269.52
2018-01-11T13:17:09.279Z,101272.03
2018-01-11T13:19:40.664Z,101277.47
2018-01-11T13:22:12.771Z,101276.02
2018-01-11T13:24:44.319Z,101279.83
2018-01-11T13:27:15.857Z,101286.92
2018-01-11T13:29:46.577Z,101293.91
2018-01-11T13:32:25.760Z,101283.09
2018-01-11T13:34:58.780Z,101288.66
2018-01-11T13:37:30.920Z,101288.85
2018-01-11T13:40:02.216Z,101296.09
2018-01-11T13:42:33.361Z,101295.55
2018-01-11T13:45:08.619Z,101297.98
2018-01-11T13:47:39.673Z,101305.45
2018-01-11T13:50:12.589Z,101306.89
2018-01-11T13:52:44.011Z,101307.52
2018-01-11T13:55:15.696Z,101318.39
2018-01-11T13:57:50.814Z,101324.52
2018-01-11T14:00:25.306Z,101325.75
2018-01-11T14:02:59.359Z,101332.08
2018-01-11T14:05:31.983Z,101339.36
2018-01-11T14:08:05.375Z,101341.31
2018-01-11T14:10:39.470Z,101337.28
2018-01-11T14:13:10.742Z,101332.55
2018-01-11T14:15:42.099Z,101330.92
2018-01-11T14:18:12.998Z,101345.11
2018-01-11T14:20:45.013Z,101351.38
2018-01-11T14:23:33.055Z,101352.19
2018-01-11T14:26:04.874Z,101358.47
2018-01-11T14:28:35.849Z,101352.00
2018-01-11T14:34:07.542Z,101359.48
2018-01-11T14:36:40.454Z,101368.19
2018-01-11T14:39:11.615Z,101376.12
2018-01-11T14:41:45.327Z,101370.42
2018-01-11T14:44:18.307Z,101379.54
2018-01-11T14:46:50.449Z,101382.63
2018-01-11T14:49:24.465Z,101381.12
2018-01-11T14:51:56.549Z,101383.73
2018-01-11T14:54:27.617Z,101397.47
2018-01-11T14:57:00.922Z,101389.06
2018-01-11T14:59:37.432Z,101395.69
2018-01-11T15:02:08.802Z,101401.15
2018-01-11T15:04:40.884Z,101404.39
2018-01-11T15:07:15.382Z,101396.64
2018-01-11T15:09:51.099Z,101408.57
2018-01-11T15:12:22.312Z,101401.55
2018-01-11T15:14:54.124Z,101415.59
2018-01-11T15:17:26.566Z,101417.12
2018-01-11T15:19:57.667Z,101418.41
2018-01-11T15:22:29.818Z,101420.56
2018-01-11T15:25:00.771Z,101420.05
2018-01-11T15:27:33.511Z,101428.05
2018-01-11T15:30:07.284Z,101433.94
2018-01-11T15:32:41.101Z,101420.69
2018-01-11T15:35:20.239Z,101434.84
2018-01-11T15:37:56.481Z,101438.01
2018-01-11T15:40:31.816Z,101441.53
2018-01-11T15:43:03.908Z,101442.28
2018-01-11T15:45:35.988Z,101438.79
2018-01-11T15:48:07.211Z,101446.45
2018-01-11T15:50:38.345Z,101446.70
2018-01-11T15:53:10.083Z,101446.45
2018-01-11T15:55:44.044Z,101456.22
2018-01-11T15:58:21.240Z,101455.75
2018-01-11T16:01:02.799Z,101461.03
2018-01-11T16:03:36.225Z,101466.76
2018-01-11T16:06:10.162Z,101467.33
2018-01-11T16:08:45.982Z,101467.20
2018-01-11T16:11:18.228Z,101474.23
2018-01-11T16:13:54.021Z,101468.24
2018-01-11T16:16:26.408Z,101475.16
2018-01-11T16:19:00.154Z,101479.77
2018-01-11T16:21:32.815Z,101426.72
2018-01-11T16:24:06.675Z,101478.67
2018-01-11T16:26:38.255Z,101489.47
2018-01-11T16:29:13.621Z,101481.78
2018-01-11T16:32:01.769Z,101489.40
2018-01-11T16:34:35.225Z,101466.59
2018-01-11T16:37:09.556Z,101485.50
2018-01-11T16:39:41.277Z,101489.42
2018-01-11T16:42:18.931Z,101493.64
2018-01-11T16:47:38.161Z,101496.81
2018-01-11T16:50:09.424Z,101510.36
2018-01-11T16:52:42.820Z,101514.05
2018-01-11T16:55:14.110Z,101522.16
2018-01-11T16:57:45.589Z,101506.22
2018-01-11T17:00:20.558Z,101518.47
2018-01-11T17:03:00.452Z,101525.73
2018-01-11T17:05:37.354Z,101533.90
2018-01-11T17:08:14.105Z,101537.95
2018-01-11T17:10:52.193Z,101539.60
2018-01-11T17:13:24.555Z,101529.53
2018-01-11T17:15:58.873Z,101539.83
2018-01-11T17:18:37.316Z,101538.92
2018-01-11T17:21:22.811Z,101550.55
2018-01-11T17:23:59.519Z,101551.72
2018-01-11T17:26:36.987Z,101554.39
2018-01-11T17:29:11.317Z,101553.79
2018-01-11T17:31:43.530Z,101545.07
2018-01-11T17:36:56.033Z,101558.61
2018-01-11T17:39:28.504Z,101561.34
2018-01-11T17:42:06.097Z,101558.19
2018-01-11T17:44:40.634Z,101518.27
2018-01-11T17:47:13.828Z,101565.64
2018-01-11T17:49:49.414Z,101565.75
2018-01-11T17:52:22.951Z,101562.23
2018-01-11T17:54:59.426Z,101565.45
2018-01-11T17:57:34.631Z,101556.33
2018-01-11T18:00:10.289Z,101552.69
2018-01-11T18:03:02.736Z,101570.97
2018-01-11T18:05:36.679Z,101568.36
2018-01-11T18:08:08.910Z,101572.42
2018-01-11T18:10:41.201Z,101558.82
2018-01-11T18:13:14.983Z,101570.84
2018-01-11T18:15:48.053Z,101537.89
2018-01-11T18:18:20.916Z,101581.95
2018-01-11T18:20:57.624Z,101580.52
2018-01-11T18:23:31.256Z,101582.54
2018-01-11T18:26:06.715Z,101583.88
2018-01-11T18:28:38.852Z,101581.41
2018-01-11T18:31:10.813Z,101594.84
2018-01-11T18:33:42.776Z,101587.02
2018-01-11T18:36:18.419Z,101584.70
2018-01-11T18:38:51.033Z,101592.77
2018-01-11T18:41:23.195Z,101591.58
2018-01-11T18:43:54.961Z,101599.70
2018-01-11T18:46:28.997Z,101598.36
2018-01-11T18:49:02.891Z,101604.45
2018-01-11T18:51:35.501Z,101606.84
2018-01-11T18:54:08.426Z,101610.72
2018-01-11T18:56:43.160Z,101612.34
2018-01-11T18:59:15.323Z,101615.14
2018-01-11T19:01:49.705Z,101619.27
2018-01-11T19:04:22.166Z,101619.10
2018-01-11T19:06:55.254Z,101624.33
2018-01-11T19:09:29.641Z,101624.58
2018-01-11T19:12:02.677Z,101624.22
2018-01-11T19:14:38.511Z,101638.88
2018-01-11T19:17:13.579Z,101636.05
2018-01-11T19:19:47.459Z,101638.19
2018-01-11T19:22:22.602Z,101644.37
2018-01-11T19:24:55.490Z,101629.82
2018-01-11T19:27:29.847Z,101648.44
2018-01-11T19:30:10.487Z,101648.59
2018-01-11T19:32:55.054Z,101637.52
2018-01-11T19:35:28.264Z,101656.45
2018-01-11T19:38:00.710Z,101640.75
2018-01-11T19:40:35.802Z,101661.55
2018-01-11T19:43:16.046Z,101669.25
2018-01-11T19:45:50.027Z,101676.80
2018-01-11T19:48:25.758Z,101677.95
2018-01-11T19:51:10.013Z,101677.08
2018-01-11T19:53:47.289Z,101668.63
2018-01-11T19:56:22.197Z,101675.00
2018-01-11T19:58:58.136Z,101662.56
2018-01-11T20:01:36.590Z,101687.84
2018-01-11T20:04:12.096Z,101690.77
2018-01-11T20:06:50.702Z,101689.30
2018-01-11T20:09:27.861Z,101695.38
2018-01-11T20:12:11.462Z,101697.13
2018-01-11T20:14:46.545Z,101701.84
2018-01-11T20:17:21.045Z,101705.80
2018-01-11T20:19:59.724Z,101708.22
2018-01-11T20:22:33.104Z,101707.80
2018-01-11T20:25:09.158Z,101704.09
2018-01-11T20:27:45.671Z,101710.38
2018-01-11T20:30:22.061Z,101710.99
2018-01-11T20:32:58.110Z,101720.08
2018-01-11T20:35:31.513Z,101707.16
2018-01-11T20:38:05.630Z,101710.59
2018-01-11T20:40:40.232Z,101713.20
2018-01-11T20:43:16.003Z,101714.04
2018-01-11T20:45:50.149Z,101719.66
2018-01-11T20:48:23.973Z,101716.20
2018-01-11T20:50:57.051Z,101724.14
2018-01-11T20:53:31.716Z,101721.85
2018-01-11T20:56:05.023Z,101715.63
2018-01-11T20:58:40.225Z,101717.66
2018-01-11T21:01:13.762Z,101723.28
2018-01-11T21:03:48.411Z,101717.23
2018-01-11T21:06:23.243Z,101718.49
2018-01-11T21:09:04.213Z,101723.39
2018-01-11T21:11:41.220Z,101728.47
2018-01-11T21:14:14.857Z,101729.03
2018-01-11T21:16:50.779Z,101727.42
2018-01-11T21:19:23.739Z,101731.25
2018-01-11T21:22:05.386Z,101734.48
2018-01-11T21:24:37.828Z,101739.33
2018-01-11T21:27:11.668Z,101743.23
2018-01-11T21:29:45.637Z,101742.29
2018-01-11T21:32:18.590Z,101740.57
2018-01-11T21:34:55.480Z,101738.23
2018-01-11T21:37:30.069Z,101752.88
2018-01-11T21:40:06.719Z,101754.30
2018-01-11T21:42:40.081Z,101758.56
2018-01-11T21:45:15.623Z,101763.11
2018-01-11T21:47:48.027Z,101773.42
2018-01-11T21:50:19.480Z,101772.81
2018-01-11T21:52:52.597Z,101773.75
2018-01-11T21:55:24.881Z,101774.17
2018-01-11T21:57:57.579Z,101773.04
2018-01-11T22:00:29.467Z,101769.61
2018-01-11T22:03:00.232Z,101775.08
2018-01-11T22:05:31.080Z,101769.42
2018-01-11T22:08:01.995Z,101770.48
2018-01-11T22:10:33.751Z,101779.92
2018-01-11T22:13:05.282Z,101786.07
2018-01-11T22:18:08.300Z,101793.70
2018-01-11T22:20:39.897Z,101799.98
2018-01-11T22:23:10.762Z,101801.36
2018-01-11T22:25:41.225Z,101804.95
2018-01-11T22:28:12.672Z,101802.67
2018-01-11T22:30:44.439Z,101810.86
2018-01-11T22:33:16.560Z,101808.33
2018-01-11T22:35:47.363Z,101812.80
2018-01-11T22:38:18.543Z,101806.32
2018-01-11T22:40:49.513Z,101807.11
2018-01-11T22:43:21.592Z,101810.20
2018-01-11T22:45:53.665Z,101811.91
2018-01-11T22:48:24.976Z,101811.43
2018-01-11T22:50:55.907Z,101808.14
2018-01-11T22:53:26.982Z,101809.92
2018-01-11T22:55:57.953Z,101808.75
2018-01-11T22:58:28.714Z,101813.27
2018-01-11T23:00:59.896Z,101817.05
2018-01-11T23:03:30.717Z,101819.67
2018-01-11T23:06:01.525Z,101819.10
2018-01-11T23:08:32.396Z,101816.84
2018-01-11T23:11:05.104Z,101823.41
2018-01-11T23:13:36.663Z,101824.62
2018-01-11T23:16:07.548Z,101826.52
2018-01-11T23:18:38.331Z,101820.84
2018-01-11T23:21:09.037Z,101832.85
2018-01-11T23:23:39.336Z,101831.45
2018-01-11T23:26:09.759Z,101831.96
2018-01-11T23:28:40.218Z,101837.05
2018-01-11T23:31:10.984Z,101832.50
2018-01-11T23:33:42.832Z,101834.47
2018-01-11T23:36:13.311Z,101843.80
2018-01-11T23:38:44.152Z,101846.87
2018-01-11T23:41:21.275Z,101847.59
2018-01-11T23:43:51.806Z,101851.13
2018-01-11T23:46:23.487Z,101853.80
2018-01-11T23:48:54.582Z,101857.88
2018-01-11T23:51:31.493Z,101862.70
2018-01-11T23:54:02.129Z,101862.08
2018-01-11T23:56:32.750Z,101862.95
2018-01-11T23:59:03.853Z,101863.39
